Time;durP1;ratioP1;P1;durP2;ratioP2;P2;SDS_P1;SDS_P2;PMS_P1;PMS_P2;Temp;Humidity;BMP_temperature;BMP_pressure;BME280_temperature;BME280_humidity;BME280_pressure;Samples;Min_cycle;Max_cycle;Signal;HPM_P1;HPM_P2
2022/06/20 00:00:58;;;;;;;12.82;10.18;;;;;;;15.44;81.54;100531.28;6225501;23;20020;-82
2022/06/20 00:03:28;;;;;;;14.18;10.60;;;;;;;15.44;81.53;100537.38;6225679;23;20075;-81
2022/06/20 00:05:55;;;;;;;13.73;10.63;;;;;;;15.50;81.15;100525.25;6225294;23;20020;-82
2022/06/20 00:08:22;;;;;;;13.98;11.48;;;;;;;15.28;81.93;100506.00;6224868;23;20036;-82
2022/06/20 00:10:51;;;;;;;14.88;10.75;;;;;;;15.30;82.20;100501.34;6224344;23;20025;-82
2022/06/20 00:13:21;;;;;;;14.45;10.23;;;;;;;15.29;82.27;100507.63;6224420;23;20401;-83
2022/06/20 00:15:48;;;;;;;16.25;10.85;;;;;;;15.36;82.17;100497.97;6223275;23;20027;-82
2022/06/20 00:18:15;;;;;;;12.40;10.23;;;;;;;15.34;82.46;100486.78;6225417;23;20024;-83
2022/06/20 00:20:42;;;;;;;14.70;11.23;;;;;;;15.21;82.93;100482.22;6223783;23;20037;-82
2022/06/20 00:23:09;;;;;;;14.02;10.38;;;;;;;15.27;82.89;100480.63;6224052;23;20066;-82
2022/06/20 00:25:37;;;;;;;14.95;11.35;;;;;;;15.14;83.13;100483.97;6224886;23;20047;-82
2022/06/20 00:28:06;;;;;;;17.02;11.55;;;;;;;15.13;82.95;100463.06;6224770;23;20024;-83
2022/06/20 00:30:33;;;;;;;14.55;11.27;;;;;;;15.11;83.39;100460.66;6223134;23;20031;-84
2022/06/20 00:33:00;;;;;;;16.52;11.50;;;;;;;15.21;83.18;100489.31;6222146;23;20374;-82
2022/06/20 00:35:26;;;;;;;14.38;10.80;;;;;;;15.32;82.81;100490.63;6222874;23;20465;-85
2022/06/20 00:37:56;;;;;;;17.25;11.43;;;;;;;15.47;82.50;100481.63;6225561;23;20090;-83
2022/06/20 00:40:28;;;;;;;17.50;10.25;;;;;;;15.49;81.62;100471.69;6225003;23;20020;-84
2022/06/20 00:42:55;;;;;;;11.73;9.40;;;;;;;15.39;81.42;100465.94;6227294;23;20024;-83
2022/06/20 00:45:26;;;;;;;16.35;9.65;;;;;;;15.03;81.98;100423.06;6226045;23;20020;-83
2022/06/20 00:48:00;;;;;;;14.77;9.55;;;;;;;15.16;82.27;100457.41;6227137;23;20070;-83
2022/06/20 00:50:30;;;;;;;13.52;9.88;;;;;;;15.08;82.42;100489.19;6224313;23;20051;-84
2022/06/20 00:53:03;;;;;;;14.00;10.48;;;;;;;15.17;83.04;100514.41;6225165;23;20016;-82
2022/06/20 00:55:35;;;;;;;16.33;10.43;;;;;;;15.26;83.50;100518.53;6226201;23;20032;-80
2022/06/20 00:58:07;;;;;;;18.30;10.17;;;;;;;15.24;83.64;100531.91;6227129;23;20373;-83
2022/06/20 01:00:39;;;;;;;14.55;10.35;;;;;;;15.39;84.06;100549.50;6226886;23;20263;-81
2022/06/20 01:03:11;;;;;;;14.30;9.75;;;;;;;15.44;85.13;100557.66;6229128;23;20024;-80
2022/06/20 01:05:44;;;;;;;13.13;10.25;;;;;;;15.49;86.16;100602.72;6229125;23;20514;-80
2022/06/20 01:08:15;;;;;;;16.80;10.95;;;;;;;15.49;85.50;100645.75;6218235;23;20396;-78
2022/06/20 01:10:45;;;;;;;13.77;10.02;;;;;;;15.60;86.08;100676.91;6225378;23;20040;-81
2022/06/20 01:13:16;;;;;;;18.05;10.23;;;;;;;15.70;87.08;100712.72;6225719;23;20450;-82
2022/06/20 01:15:49;;;;;;;14.23;10.85;;;;;;;15.75;88.77;100728.81;6226846;23;20476;-82
2022/06/20 01:18:21;;;;;;;17.67;11.63;;;;;;;15.49;89.71;100743.31;6223587;23;20025;-81
2022/06/20 01:20:51;;;;;;;22.75;12.52;;;;;;;15.34;91.05;100765.44;6222268;23;20036;-81
2022/06/20 01:23:31;;;;;;;26.33;14.43;;;;;;;15.01;93.11;100786.09;6223816;23;20032;-82
2022/06/20 01:26:16;;;;;;;19.67;13.82;;;;;;;14.79;94.00;100770.16;6222277;23;20024;-80
2022/06/20 01:28:47;;;;;;;21.08;13.75;;;;;;;14.74;94.85;100772.50;6221089;23;20035;-80
2022/06/20 01:31:16;;;;;;;21.88;14.60;;;;;;;14.68;95.35;100767.94;6219497;23;20025;-82
2022/06/20 01:33:43;;;;;;;21.20;14.60;;;;;;;14.70;96.42;100760.69;6222932;23;20028;-80
2022/06/20 01:38:56;;;;;;;20.08;14.18;;;;;;;14.58;96.98;100751.63;6220659;23;20368;-80
2022/06/20 01:44:09;;;;;;;21.88;14.25;;;;;;;14.61;96.84;100714.38;6226028;23;20051;-81
2022/06/20 01:46:37;;;;;;;16.63;13.27;;;;;;;14.57;96.98;100697.31;6231822;23;20028;-81
2022/06/20 01:49:09;;;;;;;18.67;13.93;;;;;;;14.54;96.27;100684.50;6229381;23;20024;-83
2022/06/20 01:51:43;;;;;;;18.15;13.55;;;;;;;14.57;97.57;100655.19;6225802;23;20028;-82
2022/06/20 01:54:12;;;;;;;16.45;13.50;;;;;;;14.47;97.65;100633.56;6225496;23;20020;-80
2022/06/20 01:56:41;;;;;;;18.50;13.52;;;;;;;14.23;98.00;100590.66;6222798;23;20025;-81
2022/06/20 01:59:13;;;;;;;21.42;14.15;;;;;;;14.12;98.14;100571.88;6224270;23;20043;-81
2022/06/20 02:01:41;;;;;;;17.10;13.00;;;;;;;13.91;98.80;100538.38;6224312;23;20048;-80
2022/06/20 02:04:15;;;;;;;22.58;13.75;;;;;;;13.71;99.42;100503.88;6224195;23;20070;-80
2022/06/20 02:06:42;;;;;;;18.10;13.85;;;;;;;13.78;100.00;100480.31;6225444;23;20025;-80
2022/06/20 02:09:11;;;;;;;22.52;14.35;;;;;;;13.71;100.00;100458.38;6226312;23;20044;-81
2022/06/20 02:11:40;;;;;;;19.33;15.20;;;;;;;13.66;100.00;100439.72;6227416;23;20264;-80
2022/06/20 02:14:13;;;;;;;23.65;15.48;;;;;;;13.63;100.00;100408.53;6228104;23;20025;-82
2022/06/20 02:16:41;;;;;;;;;;;;;;;13.58;100.00;100380.97;6229772;23;20028;-80
2022/06/20 02:19:12;;;;;;;19.27;15.18;;;;;;;13.42;100.00;100362.72;6224141;23;19915;-80
2022/06/20 02:21:42;;;;;;;26.52;17.38;;;;;;;13.31;100.00;100321.13;6221880;23;20048;-80
2022/06/20 02:24:12;;;;;;;22.52;16.98;;;;;;;13.22;100.00;100291.53;6221360;23;20031;-80
2022/06/20 02:26:42;;;;;;;23.67;17.25;;;;;;;13.27;100.00;100262.84;6223142;23;20400;-80
2022/06/20 02:29:24;;;;;;;20.50;16.98;;;;;;;13.23;100.00;100245.81;6222418;23;20035;-81
2022/06/20 02:31:54;;;;;;;26.83;18.42;;;;;;;13.23;100.00;100218.75;6222494;23;20016;-80
2022/06/20 02:34:21;;;;;;;28.25;20.88;;;;;;;13.18;100.00;100184.34;6220526;23;20021;-80
2022/06/20 02:36:49;;;;;;;32.40;25.15;;;;;;;13.18;100.00;100163.31;6226936;23;20031;-82
2022/06/20 02:39:17;;;;;;;31.88;24.48;;;;;;;13.26;100.00;100194.72;6225771;23;20024;-83
2022/06/20 02:41:47;;;;;;;32.10;23.90;;;;;;;13.26;100.00;100198.16;6226178;23;20021;-83
2022/06/20 02:44:17;;;;;;;32.08;23.77;;;;;;;13.24;100.00;100205.41;6227748;23;20020;-83
2022/06/20 02:46:46;;;;;;;30.88;23.25;;;;;;;13.31;100.00;100225.72;6227203;23;20104;-83
2022/06/20 02:49:15;;;;;;;29.52;23.27;;;;;;;13.39;100.00;100244.81;6227874;23;20029;-81
2022/06/20 02:51:48;;;;;;;29.73;22.67;;;;;;;13.48;100.00;100256.88;6228016;23;20028;-83
2022/06/20 02:54:17;;;;;;;24.63;18.67;;;;;;;13.35;100.00;100284.78;6225566;23;20021;-83
2022/06/20 02:56:47;;;;;;;25.30;19.42;;;;;;;13.44;100.00;100316.06;6224948;23;20028;-83
2022/06/20 02:59:19;;;;;;;23.92;19.63;;;;;;;13.48;100.00;100330.47;6225413;23;20080;-82
2022/06/20 03:01:53;;;;;;;24.45;19.38;;;;;;;13.52;100.00;100326.47;6225577;23;20031;-84
2022/06/20 03:04:22;;;;;;;25.35;20.00;;;;;;;13.54;100.00;100349.94;6225745;23;20095;-83
2022/06/20 03:06:56;;;;;;;25.73;19.42;;;;;;;13.45;100.00;100337.91;6224985;23;20024;-82
2022/06/20 03:09:29;;;;;;;21.10;17.45;;;;;;;13.45;100.00;100324.75;6223905;23;20084;-81
2022/06/20 03:11:56;;;;;;;19.80;16.50;;;;;;;13.41;100.00;100321.66;6224381;23;20131;-82
2022/06/20 03:14:28;;;;;;;19.67;16.30;;;;;;;13.47;100.00;100336.72;6227519;23;20020;-82
2022/06/20 03:16:57;;;;;;;24.02;15.85;;;;;;;13.39;100.00;100343.88;6235871;23;20028;-80
2022/06/20 03:19:31;;;;;;;21.52;15.57;;;;;;;13.35;100.00;100348.66;6226057;23;20033;-81
2022/06/20 03:22:00;;;;;;;19.35;16.13;;;;;;;13.45;100.00;100351.03;6218932;23;20396;-82
2022/06/20 03:24:29;;;;;;;20.20;15.32;;;;;;;13.39;100.00;100339.44;6218100;23;20024;-81
2022/06/20 03:26:56;;;;;;;20.20;15.93;;;;;;;13.41;100.00;100347.13;6217753;23;20028;-81
2022/06/20 03:29:25;;;;;;;21.05;14.80;;;;;;;13.34;100.00;100360.19;6216890;23;20035;-81
2022/06/20 03:31:53;;;;;;;22.92;16.70;;;;;;;13.35;100.00;100351.31;6216970;23;20487;-82
2022/06/20 03:34:21;;;;;;;15.75;13.73;;;;;;;13.28;100.00;100353.81;6216910;23;20099;-81
2022/06/20 03:36:49;;;;;;;19.02;13.32;;;;;;;13.34;100.00;100375.13;6216213;23;20363;-81
2022/06/20 03:39:18;;;;;;;16.95;14.18;;;;;;;13.24;100.00;100394.59;6216919;23;20070;-81
2022/06/20 03:41:45;;;;;;;18.42;13.95;;;;;;;13.29;100.00;100425.59;6220518;23;20039;-83
2022/06/20 03:44:17;;;;;;;16.45;13.35;;;;;;;13.35;100.00;100448.53;6219963;23;20357;-82
2022/06/20 03:46:50;;;;;;;19.63;14.40;;;;;;;13.39;100.00;100481.34;6220078;23;20052;-83
2022/06/20 03:49:22;;;;;;;17.77;13.43;;;;;;;13.51;100.00;100511.47;6218122;23;20096;-81
2022/06/20 03:51:54;;;;;;;22.53;13.00;;;;;;;13.52;100.00;100517.56;6221805;23;20021;-80
2022/06/20 03:54:26;;;;;;;20.00;14.13;;;;;;;13.50;100.00;100520.34;6220448;23;20059;-81
2022/06/20 03:57:01;;;;;;;17.65;12.80;;;;;;;13.66;100.00;100544.88;6220195;23;20154;-82
2022/06/20 03:59:33;;;;;;;18.13;12.88;;;;;;;13.60;100.00;100546.41;6221574;23;20020;-81
2022/06/20 04:02:07;;;;;;;17.95;13.45;;;;;;;13.63;100.00;100566.28;6222679;23;20027;-82
2022/06/20 04:04:38;;;;;;;22.00;14.85;;;;;;;13.71;100.00;100581.94;6222713;23;20025;-81
2022/06/20 04:07:10;;;;;;;20.90;14.05;;;;;;;13.78;100.00;100604.75;6223242;23;20035;-82
2022/06/20 04:12:30;;;;;;;18.52;14.32;;;;;;;13.74;100.00;100613.16;6223221;23;20035;-82
2022/06/20 04:15:00;;;;;;;19.50;13.90;;;;;;;13.65;100.00;100635.28;6221598;23;20055;-82
2022/06/20 04:20:22;;;;;;;22.10;15.07;;;;;;;13.69;100.00;100642.63;6222425;23;20032;-82
2022/06/20 04:22:53;;;;;;;21.30;15.88;;;;;;;13.72;100.00;100644.06;6222114;23;20052;-83
2022/06/20 04:25:28;;;;;;;21.80;16.20;;;;;;;13.82;100.00;100644.66;6221642;23;20012;-83
2022/06/20 04:28:00;;;;;;;27.73;18.80;;;;;;;13.75;100.00;100654.25;6220049;23;20028;-83
2022/06/20 04:30:35;;;;;;;24.70;18.75;;;;;;;13.77;100.00;100653.06;6221200;23;20016;-83
2022/06/20 04:33:08;;;;;;;26.40;20.25;;;;;;;13.70;100.00;100641.66;6220485;23;20111;-81
2022/06/20 04:35:39;;;;;;;32.30;22.23;;;;;;;13.69;100.00;100645.28;6219621;23;20060;-81
2022/06/20 04:38:13;;;;;;;22.15;19.52;;;;;;;13.68;100.00;100651.53;6219151;23;20063;-79
2022/06/20 04:40:44;;;;;;;26.30;19.20;;;;;;;13.67;100.00;100649.06;6221338;23;20039;-81
2022/06/20 04:43:17;;;;;;;27.55;19.70;;;;;;;13.67;100.00;100670.91;6219543;23;20025;-81
2022/06/20 04:45:50;;;;;;;27.83;19.33;;;;;;;13.75;100.00;100670.84;6221224;23;20102;-82
2022/06/20 04:48:20;;;;;;;27.90;20.20;;;;;;;13.70;100.00;100652.16;6221918;23;20020;-81
2022/06/20 04:50:49;;;;;;;24.05;19.15;;;;;;;13.68;100.00;100642.81;6220941;23;20044;-82
2022/06/20 04:53:20;;;;;;;25.20;19.63;;;;;;;13.70;100.00;100640.81;6222234;23;20024;-82
2022/06/20 04:55:50;;;;;;;31.67;19.50;;;;;;;13.74;100.00;100631.56;6222505;23;20032;-82
2022/06/20 04:58:22;;;;;;;27.17;18.23;;;;;;;13.73;100.00;100629.94;6219662;23;20060;-81
2022/06/20 05:00:51;;;;;;;30.63;18.07;;;;;;;13.70;100.00;100625.06;6218897;23;20016;-82
2022/06/20 05:03:26;;;;;;;23.88;18.42;;;;;;;13.75;100.00;100627.94;6220354;23;20326;-81
2022/06/20 05:05:56;;;;;;;25.55;17.13;;;;;;;13.77;100.00;100607.53;6221973;23;20025;-81
2022/06/20 05:08:26;;;;;;;27.38;17.20;;;;;;;13.61;100.00;100587.47;6220112;23;20095;-82
2022/06/20 05:10:59;;;;;;;23.77;16.50;;;;;;;13.69;100.00;100589.22;6221480;23;20059;-82
2022/06/20 05:13:34;;;;;;;27.90;15.88;;;;;;;13.74;100.00;100600.00;6220480;23;20020;-81
2022/06/20 05:16:02;;;;;;;25.70;15.57;;;;;;;13.66;100.00;100592.22;6219219;23;20025;-80
2022/06/20 05:18:34;;;;;;;24.85;15.27;;;;;;;13.67;100.00;100588.59;6219320;23;20020;-81
2022/06/20 05:21:07;;;;;;;25.55;16.33;;;;;;;13.73;100.00;100598.38;6220273;23;20484;-82
2022/06/20 05:23:36;;;;;;;;;;;;;;;13.73;100.00;100580.78;6221597;23;20032;-81
2022/06/20 05:26:05;;;;;;;21.10;14.02;;;;;;;13.52;100.00;100565.69;6220204;23;19961;-82
2022/06/20 05:28:34;;;;;;;22.83;13.90;;;;;;;13.42;100.00;100551.97;6220970;23;20070;-81
2022/06/20 05:31:02;;;;;;;24.40;13.20;;;;;;;13.37;100.00;100545.59;6221150;23;20458;-81
2022/06/20 05:33:36;;;;;;;27.25;15.18;;;;;;;13.34;100.00;100564.34;6221655;23;20048;-82
2022/06/20 05:36:06;;;;;;;23.58;13.60;;;;;;;13.42;100.00;100565.09;6222890;23;20021;-82
2022/06/20 05:38:37;;;;;;;24.33;14.18;;;;;;;13.33;100.00;100558.28;6222435;23;20024;-81
2022/06/20 05:41:07;;;;;;;20.85;13.70;;;;;;;13.49;100.00;100575.75;6224088;23;20017;-80
2022/06/20 05:43:36;;;;;;;21.35;13.05;;;;;;;13.35;100.00;100569.44;6223489;23;20021;-83
2022/06/20 05:46:07;;;;;;;19.88;13.30;;;;;;;13.33;100.00;100560.91;6223256;23;20044;-83
2022/06/20 05:48:43;;;;;;;20.67;13.23;;;;;;;13.41;100.00;100576.63;6222504;23;20025;-81
2022/06/20 05:51:13;;;;;;;21.23;13.52;;;;;;;13.35;100.00;100579.94;6222598;23;20031;-82
2022/06/20 05:53:44;;;;;;;22.77;13.40;;;;;;;13.35;100.00;100585.19;6224005;23;20300;-81
2022/06/20 05:56:17;;;;;;;21.65;12.63;;;;;;;13.40;100.00;100601.25;6224553;23;20051;-79
2022/06/20 05:58:45;;;;;;;21.75;12.45;;;;;;;13.33;100.00;100602.94;6224507;23;20036;-80
2022/06/20 06:01:16;;;;;;;17.52;11.73;;;;;;;13.30;100.00;100595.41;6225488;23;20040;-80
2022/06/20 06:03:55;;;;;;;19.17;12.25;;;;;;;13.20;100.00;100592.22;6224863;23;20020;-80
2022/06/20 06:06:27;;;;;;;21.02;12.48;;;;;;;13.31;100.00;100599.69;6225137;23;20032;-80
2022/06/20 06:08:58;;;;;;;20.15;10.80;;;;;;;13.38;100.00;100602.44;6225200;23;20017;-83
2022/06/20 06:11:30;;;;;;;17.05;10.70;;;;;;;13.32;100.00;100595.25;6227499;23;20469;-79
2022/06/20 06:14:20;;;;;;;19.58;10.90;;;;;;;13.40;100.00;100593.38;6227390;23;20069;-82
2022/06/20 06:16:52;;;;;;;19.67;10.30;;;;;;;13.41;100.00;100581.88;6226233;23;20024;-82
2022/06/20 06:19:34;;;;;;;19.50;11.17;;;;;;;13.39;99.69;100591.75;6223993;23;20021;-81
2022/06/20 06:22:05;;;;;;;21.38;12.05;;;;;;;13.41;99.43;100602.06;6223292;23;20636;-82
2022/06/20 06:24:43;;;;;;;17.63;11.30;;;;;;;13.47;100.00;100612.72;6224428;23;20087;-82
2022/06/20 06:27:22;;;;;;;19.15;11.50;;;;;;;13.43;99.75;100621.94;6228073;23;20020;-81
2022/06/20 06:29:55;;;;;;;20.50;10.32;;;;;;;13.49;99.67;100634.38;6224573;23;20134;-82
2022/06/20 06:32:27;;;;;;;22.83;10.73;;;;;;;13.51;99.89;100650.81;6225932;23;20076;-82
2022/06/20 06:35:01;;;;;;;19.80;10.70;;;;;;;13.49;98.91;100644.91;6227284;23;20025;-82
2022/06/20 06:37:36;;;;;;;17.15;10.95;;;;;;;13.58;99.24;100649.13;6229752;23;20314;-83
2022/06/20 06:40:10;;;;;;;22.90;10.60;;;;;;;13.55;98.97;100649.47;6231191;23;20032;-82
2022/06/20 06:42:39;;;;;;;23.55;11.40;;;;;;;13.53;99.00;100661.97;6230189;23;20017;-82
2022/06/20 06:45:07;;;;;;;16.95;10.65;;;;;;;13.57;97.91;100665.88;6230569;23;20048;-81
2022/06/20 06:47:39;;;;;;;17.88;11.77;;;;;;;13.61;98.48;100675.06;6226162;23;20024;-82
2022/06/20 06:50:21;;;;;;;26.08;12.02;;;;;;;13.69;99.22;100681.25;6224159;23;20036;-81
2022/06/20 06:52:56;;;;;;;16.83;11.10;;;;;;;13.69;98.28;100687.34;6222869;23;20052;-82
2022/06/20 06:55:30;;;;;;;27.88;12.25;;;;;;;13.71;98.29;100684.50;6224789;23;20025;-81
2022/06/20 06:58:02;;;;;;;19.10;10.75;;;;;;;13.68;97.52;100682.25;6225671;23;20052;-81
2022/06/20 07:00:35;;;;;;;16.92;10.00;;;;;;;13.70;97.48;100688.97;6225494;23;20026;-81
2022/06/20 07:03:07;;;;;;;19.20;8.48;;;;;;;13.73;96.24;100704.38;6226591;23;20020;-82
2022/06/20 07:05:37;;;;;;;12.77;7.28;;;;;;;13.60;94.97;100678.69;6229706;23;20028;-81
2022/06/20 07:08:14;;;;;;;15.43;6.95;;;;;;;13.71;94.62;100692.41;6227685;23;20025;-82
2022/06/20 07:10:48;;;;;;;15.65;6.03;;;;;;;13.49;93.10;100701.91;6225304;23;20067;-83
2022/06/20 07:13:23;;;;;;;15.73;6.63;;;;;;;13.65;94.25;100716.78;6224088;23;20044;-82
2022/06/20 07:15:53;;;;;;;16.83;5.60;;;;;;;13.50;94.19;100714.06;6226988;23;20024;-82
2022/06/20 07:18:35;;;;;;;11.77;5.60;;;;;;;13.43;94.56;100692.91;6224825;23;20035;-83
2022/06/20 07:21:17;;;;;;;16.50;5.57;;;;;;;13.33;93.62;100673.91;6225196;23;20016;-81
2022/06/20 07:23:46;;;;;;;15.00;5.10;;;;;;;13.40;93.13;100674.03;6224007;23;20024;-83
2022/06/20 07:26:21;;;;;;;14.65;5.18;;;;;;;13.36;92.60;100667.47;6223304;23;20071;-81
2022/06/20 07:28:53;;;;;;;12.73;5.10;;;;;;;13.46;92.59;100707.53;6226503;23;20021;-82
2022/06/20 07:31:24;;;;;;;12.32;5.30;;;;;;;13.48;92.84;100721.31;6228871;23;20143;-82
2022/06/20 07:33:55;;;;;;;13.32;5.65;;;;;;;13.41;91.85;100713.28;6229188;23;20025;-82
2022/06/20 07:36:28;;;;;;;17.65;5.50;;;;;;;13.43;93.31;100708.69;6229997;23;20076;-81
2022/06/20 07:39:00;;;;;;;13.85;5.63;;;;;;;13.48;92.86;100711.63;6231140;23;20031;-81
2022/06/20 07:41:33;;;;;;;11.98;5.30;;;;;;;13.61;92.94;100705.78;6228888;23;20020;-81
2022/06/20 07:44:06;;;;;;;14.77;5.38;;;;;;;13.72;93.07;100712.44;6230063;23;20028;-81
2022/06/20 07:46:34;;;;;;;;;;;;;;;13.89;92.03;100706.91;6226089;23;20024;-82
2022/06/20 07:49:06;;;;;;;15.07;5.55;;;;;;;14.04;90.03;100714.84;6226499;23;19916;-81
2022/06/20 07:51:37;;;;;;;8.63;4.65;;;;;;;14.17;89.00;100711.63;6224409;23;20021;-82
2022/06/20 07:54:10;;;;;;;12.10;4.90;;;;;;;14.08;89.93;100721.41;6222724;23;20032;-82
2022/06/20 07:56:42;;;;;;;16.35;4.95;;;;;;;14.20;89.41;100722.59;6222211;23;20047;-81
2022/06/20 07:59:14;;;;;;;8.02;4.38;;;;;;;14.22;88.32;100725.88;6222477;23;20035;-82
2022/06/20 08:01:46;;;;;;;14.15;4.47;;;;;;;14.40;88.20;100730.84;6219585;23;20353;-81
2022/06/20 08:04:16;;;;;;;10.20;4.13;;;;;;;14.39;85.49;100752.88;6220395;23;20024;-82
2022/06/20 08:06:50;;;;;;;10.80;4.32;;;;;;;14.69;84.56;100748.50;6222573;23;20020;-83
2022/06/20 08:09:23;;;;;;;9.73;4.15;;;;;;;15.03;84.44;100765.63;6225731;23;20025;-82
2022/06/20 08:11:57;;;;;;;14.02;5.05;;;;;;;15.38;84.52;100771.97;6225742;23;20020;-82
2022/06/20 08:14:30;;;;;;;10.88;4.35;;;;;;;15.60;83.45;100789.50;6225248;23;20026;-82
2022/06/20 08:17:08;;;;;;;15.57;4.68;;;;;;;15.97;82.81;100795.63;6227035;23;20045;-83
2022/06/20 08:19:35;;;;;;;8.23;4.43;;;;;;;16.11;78.67;100797.38;6225960;23;20024;-83
2022/06/20 08:22:11;;;;;;;17.20;6.22;;;;;;;16.18;78.08;100799.06;6228420;23;20019;-83
2022/06/20 08:24:45;;;;;;;11.93;4.10;;;;;;;16.33;77.78;100801.66;6232096;23;20511;-83
2022/06/20 08:27:18;;;;;;;14.50;4.63;;;;;;;16.30;77.20;100799.41;6229178;23;20048;-83
2022/06/20 08:29:51;;;;;;;13.38;4.60;;;;;;;16.24;74.23;100821.28;6230258;23;20028;-82
2022/06/20 08:32:24;;;;;;;13.35;4.47;;;;;;;16.42;75.62;100820.84;6232165;23;20021;-82
2022/06/20 08:34:57;;;;;;;12.52;4.78;;;;;;;16.64;77.40;100825.09;6230459;23;20024;-83
2022/06/20 08:37:31;;;;;;;9.82;4.40;;;;;;;16.54;76.48;100820.13;6232737;23;20047;-83
2022/06/20 08:40:11;;;;;;;9.70;4.50;;;;;;;17.08;76.04;100818.72;6233409;23;20027;-83
2022/06/20 08:43:00;;;;;;;10.93;4.93;;;;;;;17.00;73.76;100819.72;6233791;23;20055;-84
2022/06/20 08:45:42;;;;;;;15.55;5.97;;;;;;;16.94;75.96;100815.19;6235272;23;20060;-83
2022/06/20 08:48:34;;;;;;;14.30;6.13;;;;;;;17.15;77.02;100822.22;6234433;23;20020;-83
2022/06/20 08:51:41;;;;;;;13.80;6.13;;;;;;;17.29;74.70;100829.22;6233598;23;20024;-83
2022/06/20 08:54:30;;;;;;;11.10;6.38;;;;;;;17.23;73.90;100822.06;6232812;23;20024;-83
2022/06/20 08:57:04;;;;;;;9.48;4.75;;;;;;;16.80;72.82;100830.13;6229370;23;20039;-84
2022/06/20 08:59:49;;;;;;;11.15;4.55;;;;;;;16.69;73.91;100828.00;6229049;23;20032;-84
2022/06/20 09:02:33;;;;;;;11.32;5.57;;;;;;;16.31;72.09;100834.53;6229086;23;20024;-80
2022/06/20 09:05:32;;;;;;;16.33;6.05;;;;;;;16.48;72.36;100825.38;6230728;23;20086;-82
2022/06/20 09:08:16;;;;;;;18.60;7.40;;;;;;;16.34;72.18;100821.78;6229092;23;20027;-83
2022/06/20 09:11:00;;;;;;;17.20;7.28;;;;;;;16.49;71.22;100832.28;6230239;23;20035;-83
2022/06/20 09:14:02;;;;;;;16.67;7.82;;;;;;;16.74;73.15;100830.88;6229330;23;20051;-83
2022/06/20 09:16:40;;;;;;;18.63;7.90;;;;;;;17.45;71.56;100826.28;6223164;23;20024;-82
2022/06/20 09:19:26;;;;;;;15.23;7.50;;;;;;;17.89;71.59;100851.53;6229769;23;20021;-84
2022/06/20 09:22:02;;;;;;;16.70;8.82;;;;;;;17.65;71.10;100834.31;6217503;23;20021;-79
2022/06/20 09:24:43;;;;;;;17.92;8.90;;;;;;;17.66;69.83;100841.25;6219613;23;20032;-80
2022/06/20 09:27:17;;;;;;;16.20;9.63;;;;;;;18.08;69.84;100856.03;6218333;23;20432;-80
2022/06/20 09:29:59;;;;;;;16.63;11.23;;;;;;;18.60;70.30;100865.13;6217179;23;20083;-79
2022/06/20 09:32:51;;;;;;;18.88;10.57;;;;;;;18.63;68.90;100864.72;6184222;23;20075;-80
2022/06/20 09:35:44;;;;;;;18.90;11.40;;;;;;;18.74;68.47;100856.19;6184366;23;20099;-79
2022/06/20 09:38:29;;;;;;;19.42;12.95;;;;;;;18.67;68.77;100859.84;6184563;23;20072;-79
2022/06/20 09:41:05;;;;;;;21.42;13.43;;;;;;;18.98;68.42;100867.16;6186692;23;20056;-78
2022/06/20 09:43:40;;;;;;;18.77;13.30;;;;;;;20.07;64.36;100856.66;6185109;23;20056;-79
2022/06/20 09:46:15;;;;;;;20.00;14.50;;;;;;;19.63;62.28;100845.03;6185070;23;20025;-79
2022/06/20 09:48:48;;;;;;;20.58;14.07;;;;;;;19.44;63.92;100851.16;6184635;23;20059;-77
2022/06/20 09:51:22;;;;;;;19.40;13.57;;;;;;;19.16;64.19;100840.84;6184578;23;20052;-78
2022/06/20 09:54:03;;;;;;;17.80;13.40;;;;;;;19.39;62.43;100840.34;6184554;23;20074;-79
2022/06/20 09:56:42;;;;;;;20.67;13.05;;;;;;;20.00;59.34;100854.03;6184441;23;20064;-80
2022/06/20 09:59:26;;;;;;;19.40;13.20;;;;;;;19.50;60.64;100851.16;6184746;23;20027;-78
2022/06/20 10:02:13;;;;;;;19.23;13.43;;;;;;;18.93;64.02;100849.22;6185192;23;20048;-79
2022/06/20 10:04:48;;;;;;;14.55;11.20;;;;;;;18.83;64.05;100856.78;6185573;23;20041;-79
2022/06/20 10:07:24;;;;;;;14.20;11.63;;;;;;;18.63;66.62;100862.09;6185898;23;20056;-79
2022/06/20 10:09:58;;;;;;;17.60;12.15;;;;;;;18.96;65.79;100855.94;6184847;23;20029;-78
2022/06/20 10:12:41;;;;;;;17.08;10.98;;;;;;;18.87;66.89;100869.44;6185486;23;20080;-77
2022/06/20 10:15:14;;;;;;;14.65;9.77;;;;;;;18.51;66.79;100876.91;6184291;23;20125;-77
2022/06/20 10:17:50;;;;;;;15.40;10.15;;;;;;;17.62;69.65;100876.19;6184193;23;20067;-79
2022/06/20 10:20:31;;;;;;;15.38;11.48;;;;;;;17.61;71.17;100874.56;6184355;23;20060;-77
2022/06/20 10:23:08;;;;;;;20.00;10.80;;;;;;;17.95;69.78;100873.75;6184206;23;20052;-78
2022/06/20 10:25:51;;;;;;;14.88;9.48;;;;;;;18.09;69.45;100883.34;6184806;23;20047;-78
2022/06/20 10:28:28;;;;;;;14.00;9.32;;;;;;;18.20;67.57;100880.13;6185695;23;20052;-78
2022/06/20 10:31:05;;;;;;;16.90;8.15;;;;;;;18.42;68.13;100883.44;6186092;23;20021;-76
2022/06/20 10:33:41;;;;;;;13.40;7.78;;;;;;;18.37;68.62;100885.88;6186168;23;20542;-79
2022/06/20 10:36:25;;;;;;;15.90;6.00;;;;;;;18.40;68.37;100890.78;6186943;23;20098;-78
2022/06/20 10:39:07;;;;;;;13.48;6.45;;;;;;;18.13;67.30;100880.09;6187005;23;20072;-78
2022/06/20 10:41:45;;;;;;;11.93;6.00;;;;;;;18.21;68.35;100890.53;6186650;23;20478;-79
2022/06/20 10:44:22;;;;;;;10.55;5.72;;;;;;;17.92;69.78;100882.91;6186302;23;20159;-80
2022/06/20 10:47:03;;;;;;;9.93;5.05;;;;;;;18.20;67.99;100890.72;6187374;23;20025;-79
2022/06/20 10:49:56;;;;;;;11.23;4.45;;;;;;;18.50;64.63;100883.22;6188813;23;20021;-79
2022/06/20 10:52:40;;;;;;;9.45;4.32;;;;;;;19.77;61.66;100880.31;6188504;23;20021;-79
2022/06/20 10:55:17;;;;;;;9.85;4.18;;;;;;;19.97;56.92;100886.34;6191610;23;20075;-79
2022/06/20 10:57:55;;;;;;;7.57;3.60;;;;;;;19.22;55.28;100883.28;6190977;23;20543;-78
2022/06/20 11:00:26;;;;;;;8.32;3.55;;;;;;;18.90;56.29;100879.63;6188079;23;20097;-79
2022/06/20 11:03:38;;;;;;;9.02;3.90;;;;;;;19.10;58.09;100881.44;6186655;23;20017;-79
2022/06/20 11:06:13;;;;;;;8.77;4.15;;;;;;;19.09;59.42;100879.81;6185743;23;20036;-79
2022/06/20 11:08:49;;;;;;;5.93;3.63;;;;;;;19.08;59.91;100888.78;6184885;23;20099;-79
2022/06/20 11:11:29;;;;;;;7.35;3.42;;;;;;;19.27;58.53;100893.28;6184897;23;20103;-78
2022/06/20 11:14:03;;;;;;;8.23;5.40;;;;;;;19.44;57.57;100893.63;6185504;23;20461;-79
2022/06/20 11:16:39;;;;;;;6.55;3.40;;;;;;;19.95;54.39;100890.22;6184388;23;20553;-80
2022/06/20 11:19:22;;;;;;;8.80;3.58;;;;;;;20.51;51.05;100885.84;6181581;23;20414;-79
2022/06/20 11:21:59;;;;;;;6.45;3.38;;;;;;;20.78;53.01;100886.50;6185486;23;20236;-79
2022/06/20 11:24:38;;;;;;;5.47;3.45;;;;;;;21.08;51.82;100881.31;6185426;23;20029;-80
2022/06/20 11:27:22;;;;;;;6.03;3.20;;;;;;;21.03;52.43;100875.00;6185741;23;20052;-79
2022/06/20 11:30:08;;;;;;;6.03;3.30;;;;;;;20.96;51.92;100876.91;6186344;23;20048;-79
2022/06/20 11:32:45;;;;;;;7.25;4.05;;;;;;;20.43;52.92;100879.97;6185675;23;20084;-79
2022/06/20 11:35:22;;;;;;;5.78;3.08;;;;;;;19.76;50.31;100884.00;6186243;23;20085;-79
2022/06/20 11:38:03;;;;;;;4.65;3.40;;;;;;;19.67;50.93;100883.41;6184777;23;20049;-79
2022/06/20 11:40:43;;;;;;;7.05;3.17;;;;;;;20.03;52.05;100882.03;6185280;23;20048;-78
2022/06/20 11:43:33;;;;;;;7.07;3.50;;;;;;;20.35;49.36;100882.84;6185135;23;20049;-79
2022/06/20 11:46:13;;;;;;;7.57;3.50;;;;;;;20.43;48.60;100890.59;6190188;23;20339;-81
2022/06/20 11:48:54;;;;;;;5.75;3.53;;;;;;;20.29;47.98;100881.06;6188254;23;20072;-80
2022/06/20 11:51:30;;;;;;;8.95;3.20;;;;;;;20.06;47.70;100893.03;6188970;23;20029;-79
2022/06/20 11:54:13;;;;;;;5.95;3.50;;;;;;;20.41;47.66;100874.06;6189753;23;20021;-80